sensor_id;sensor_type;location;lat;lon;timestamp;temperature;humidity
17307;DHT22;8771;48.048;7.682;2023-02-28T00:01:36;2.20;67.20
17307;DHT22;8771;48.048;7.682;2023-02-28T00:06:38;2.20;67.30
17307;DHT22;8771;48.048;7.682;2023-02-28T00:11:40;2.20;67.20
17307;DHT22;8771;48.048;7.682;2023-02-28T00:16:43;2.10;67.20
17307;DHT22;8771;48.048;7.682;2023-02-28T00:21:46;2.10;67.90
17307;DHT22;8771;48.048;7.682;2023-02-28T00:26:48;2.00;67.10
17307;DHT22;8771;48.048;7.682;2023-02-28T00:31:51;2.00;67.10
17307;DHT22;8771;48.048;7.682;2023-02-28T00:41:55;2.00;66.50
17307;DHT22;8771;48.048;7.682;2023-02-28T00:46:59;2.00;67.10
17307;DHT22;8771;48.048;7.682;2023-02-28T00:52:02;2.00;67.10
17307;DHT22;8771;48.048;7.682;2023-02-28T00:57:04;2.00;67.10
17307;DHT22;8771;48.048;7.682;2023-02-28T01:02:07;2.00;67.10
17307;DHT22;8771;48.048;7.682;2023-02-28T01:07:09;2.00;67.10
17307;DHT22;8771;48.048;7.682;2023-02-28T01:12:11;2.00;67.00
17307;DHT22;8771;48.048;7.682;2023-02-28T01:17:14;2.00;67.00
17307;DHT22;8771;48.048;7.682;2023-02-28T01:22:16;2.10;67.00
17307;DHT22;8771;48.048;7.682;2023-02-28T01:27:18;2.10;67.00
17307;DHT22;8771;48.048;7.682;2023-02-28T01:32:21;2.10;66.90
17307;DHT22;8771;48.048;7.682;2023-02-28T01:37:24;2.10;67.00
17307;DHT22;8771;48.048;7.682;2023-02-28T01:42:27;2.10;66.90
17307;DHT22;8771;48.048;7.682;2023-02-28T01:47:32;2.10;66.90
17307;DHT22;8771;48.048;7.682;2023-02-28T01:52:34;2.10;67.60
17307;DHT22;8771;48.048;7.682;2023-02-28T01:57:39;2.10;66.80
17307;DHT22;8771;48.048;7.682;2023-02-28T02:02:47;2.10;66.80
17307;DHT22;8771;48.048;7.682;2023-02-28T02:07:52;2.10;66.80
17307;DHT22;8771;48.048;7.682;2023-02-28T02:18:30;2.00;66.80
17307;DHT22;8771;48.048;7.682;2023-02-28T02:23:59;2.10;66.80
17307;DHT22;8771;48.048;7.682;2023-02-28T02:34:41;2.10;67.50
17307;DHT22;8771;48.048;7.682;2023-02-28T02:39:50;2.10;66.80
17307;DHT22;8771;48.048;7.682;2023-02-28T02:44:59;2.10;66.80
17307;DHT22;8771;48.048;7.682;2023-02-28T02:50:06;2.10;66.80
17307;DHT22;8771;48.048;7.682;2023-02-28T02:55:11;2.10;66.80
17307;DHT22;8771;48.048;7.682;2023-02-28T03:00:16;2.10;66.80
17307;DHT22;8771;48.048;7.682;2023-02-28T03:05:24;2.10;66.80
17307;DHT22;8771;48.048;7.682;2023-02-28T03:10:34;2.10;66.70
17307;DHT22;8771;48.048;7.682;2023-02-28T03:15:44;2.10;66.80
17307;DHT22;8771;48.048;7.682;2023-02-28T03:20:58;2.10;66.70
17307;DHT22;8771;48.048;7.682;2023-02-28T03:26:07;2.00;66.70
17307;DHT22;8771;48.048;7.682;2023-02-28T03:31:18;2.00;66.70
17307;DHT22;8771;48.048;7.682;2023-02-28T03:36:25;2.00;66.70
17307;DHT22;8771;48.048;7.682;2023-02-28T03:41:32;2.00;66.70
17307;DHT22;8771;48.048;7.682;2023-02-28T03:46:44;2.00;67.50
17307;DHT22;8771;48.048;7.682;2023-02-28T03:51:49;2.00;66.80
17307;DHT22;8771;48.048;7.682;2023-02-28T03:56:55;2.00;66.80
17307;DHT22;8771;48.048;7.682;2023-02-28T04:01:58;1.90;66.70
17307;DHT22;8771;48.048;7.682;2023-02-28T04:07:04;1.90;66.80
17307;DHT22;8771;48.048;7.682;2023-02-28T04:12:06;1.90;66.80
17307;DHT22;8771;48.048;7.682;2023-02-28T04:17:09;1.80;66.80
17307;DHT22;8771;48.048;7.682;2023-02-28T04:22:12;1.80;66.80
17307;DHT22;8771;48.048;7.682;2023-02-28T04:27:14;1.80;66.90
17307;DHT22;8771;48.048;7.682;2023-02-28T04:32:16;1.80;67.00
17307;DHT22;8771;48.048;7.682;2023-02-28T04:37:19;1.80;67.00
17307;DHT22;8771;48.048;7.682;2023-02-28T04:42:28;1.80;67.00
17307;DHT22;8771;48.048;7.682;2023-02-28T04:47:35;1.70;67.00
17307;DHT22;8771;48.048;7.682;2023-02-28T04:52:39;1.70;67.00
17307;DHT22;8771;48.048;7.682;2023-02-28T04:57:41;1.70;67.10
17307;DHT22;8771;48.048;7.682;2023-02-28T05:02:43;1.60;67.10
17307;DHT22;8771;48.048;7.682;2023-02-28T05:07:47;1.60;67.10
17307;DHT22;8771;48.048;7.682;2023-02-28T05:12:49;1.60;67.10
17307;DHT22;8771;48.048;7.682;2023-02-28T05:17:51;1.60;67.10
17307;DHT22;8771;48.048;7.682;2023-02-28T05:22:54;1.60;67.20
17307;DHT22;8771;48.048;7.682;2023-02-28T05:27:56;1.50;67.20
17307;DHT22;8771;48.048;7.682;2023-02-28T05:32:58;1.50;67.30
17307;DHT22;8771;48.048;7.682;2023-02-28T05:38:02;1.50;67.30
17307;DHT22;8771;48.048;7.682;2023-02-28T05:43:03;1.50;67.30
17307;DHT22;8771;48.048;7.682;2023-02-28T05:48:06;1.50;67.30
17307;DHT22;8771;48.048;7.682;2023-02-28T05:53:09;1.50;67.30
17307;DHT22;8771;48.048;7.682;2023-02-28T05:58:12;1.50;67.30
17307;DHT22;8771;48.048;7.682;2023-02-28T06:03:14;1.50;67.30
17307;DHT22;8771;48.048;7.682;2023-02-28T06:08:17;1.50;67.30
17307;DHT22;8771;48.048;7.682;2023-02-28T06:13:20;1.50;67.30
17307;DHT22;8771;48.048;7.682;2023-02-28T06:18:21;1.50;67.30
17307;DHT22;8771;48.048;7.682;2023-02-28T06:23:25;1.50;67.40
17307;DHT22;8771;48.048;7.682;2023-02-28T06:28:27;1.50;67.40
17307;DHT22;8771;48.048;7.682;2023-02-28T06:33:30;1.50;67.40
17307;DHT22;8771;48.048;7.682;2023-02-28T06:38:34;1.50;67.40
17307;DHT22;8771;48.048;7.682;2023-02-28T06:43:38;1.50;67.40
17307;DHT22;8771;48.048;7.682;2023-02-28T06:48:41;1.50;67.40
17307;DHT22;8771;48.048;7.682;2023-02-28T06:53:44;1.50;67.50
17307;DHT22;8771;48.048;7.682;2023-02-28T06:58:46;1.50;67.50
17307;DHT22;8771;48.048;7.682;2023-02-28T07:03:49;1.50;67.60
17307;DHT22;8771;48.048;7.682;2023-02-28T07:08:54;1.50;67.60
17307;DHT22;8771;48.048;7.682;2023-02-28T07:13:56;1.50;67.60
17307;DHT22;8771;48.048;7.682;2023-02-28T07:18:59;1.50;67.40
17307;DHT22;8771;48.048;7.682;2023-02-28T07:24:02;1.60;67.60
17307;DHT22;8771;48.048;7.682;2023-02-28T07:29:04;1.60;67.40
17307;DHT22;8771;48.048;7.682;2023-02-28T07:34:06;1.60;67.40
17307;DHT22;8771;48.048;7.682;2023-02-28T07:39:09;1.60;67.40
17307;DHT22;8771;48.048;7.682;2023-02-28T07:44:12;1.70;67.40
17307;DHT22;8771;48.048;7.682;2023-02-28T07:49:14;1.70;67.40
17307;DHT22;8771;48.048;7.682;2023-02-28T07:54:17;1.70;67.40
17307;DHT22;8771;48.048;7.682;2023-02-28T07:59:19;1.70;67.40
17307;DHT22;8771;48.048;7.682;2023-02-28T08:04:21;1.70;67.40
17307;DHT22;8771;48.048;7.682;2023-02-28T08:09:25;1.70;67.50
17307;DHT22;8771;48.048;7.682;2023-02-28T08:14:27;1.70;67.50
17307;DHT22;8771;48.048;7.682;2023-02-28T08:19:29;1.70;67.60
17307;DHT22;8771;48.048;7.682;2023-02-28T08:24:33;1.70;67.50
17307;DHT22;8771;48.048;7.682;2023-02-28T08:29:36;1.80;67.50
17307;DHT22;8771;48.048;7.682;2023-02-28T08:34:39;1.90;67.40
17307;DHT22;8771;48.048;7.682;2023-02-28T08:44:45;2.20;88.00
17307;DHT22;8771;48.048;7.682;2023-02-28T08:49:48;2.30;90.90
17307;DHT22;8771;48.048;7.682;2023-02-28T08:54:52;2.40;90.50
17307;DHT22;8771;48.048;7.682;2023-02-28T08:59:54;2.60;67.00
17307;DHT22;8771;48.048;7.682;2023-02-28T09:04:56;2.70;67.00
17307;DHT22;8771;48.048;7.682;2023-02-28T09:10:00;2.80;66.90
17307;DHT22;8771;48.048;7.682;2023-02-28T09:15:02;3.00;67.70
17307;DHT22;8771;48.048;7.682;2023-02-28T09:20:05;3.00;66.90
17307;DHT22;8771;48.048;7.682;2023-02-28T09:25:09;3.20;67.00
17307;DHT22;8771;48.048;7.682;2023-02-28T09:30:12;3.40;66.80
17307;DHT22;8771;48.048;7.682;2023-02-28T09:35:14;3.50;66.70
17307;DHT22;8771;48.048;7.682;2023-02-28T09:40:20;3.60;66.70
17307;DHT22;8771;48.048;7.682;2023-02-28T09:45:24;3.60;66.70
17307;DHT22;8771;48.048;7.682;2023-02-28T09:50:32;3.70;66.70
17307;DHT22;8771;48.048;7.682;2023-02-28T09:55:42;3.90;66.70
17307;DHT22;8771;48.048;7.682;2023-02-28T10:00:49;4.10;66.50
17307;DHT22;8771;48.048;7.682;2023-02-28T10:06:00;4.20;66.50
17307;DHT22;8771;48.048;7.682;2023-02-28T10:11:07;4.30;66.30
17307;DHT22;8771;48.048;7.682;2023-02-28T10:16:12;4.40;66.40
17307;DHT22;8771;48.048;7.682;2023-02-28T10:21:20;4.50;66.40
17307;DHT22;8771;48.048;7.682;2023-02-28T10:26:26;4.50;66.40
17307;DHT22;8771;48.048;7.682;2023-02-28T10:31:30;4.60;66.50
17307;DHT22;8771;48.048;7.682;2023-02-28T10:36:32;4.70;66.40
17307;DHT22;8771;48.048;7.682;2023-02-28T10:41:42;4.80;66.30
17307;DHT22;8771;48.048;7.682;2023-02-28T10:46:45;4.90;66.40
17307;DHT22;8771;48.048;7.682;2023-02-28T10:51:49;4.90;66.10
17307;DHT22;8771;48.048;7.682;2023-02-28T10:57:15;4.90;66.20
17307;DHT22;8771;48.048;7.682;2023-02-28T11:02:35;4.90;66.40
17307;DHT22;8771;48.048;7.682;2023-02-28T11:07:41;5.10;66.10
17307;DHT22;8771;48.048;7.682;2023-02-28T11:12:45;5.30;66.00
17307;DHT22;8771;48.048;7.682;2023-02-28T11:17:54;5.70;65.80
17307;DHT22;8771;48.048;7.682;2023-02-28T11:22:57;5.90;65.50
17307;DHT22;8771;48.048;7.682;2023-02-28T11:28:04;6.20;65.40
17307;DHT22;8771;48.048;7.682;2023-02-28T11:33:26;6.50;65.20
17307;DHT22;8771;48.048;7.682;2023-02-28T11:38:29;6.70;65.20
17307;DHT22;8771;48.048;7.682;2023-02-28T11:43:59;6.80;65.20
17307;DHT22;8771;48.048;7.682;2023-02-28T11:49:17;6.70;65.40
17307;DHT22;8771;48.048;7.682;2023-02-28T11:54:53;6.80;65.70
17307;DHT22;8771;48.048;7.682;2023-02-28T12:00:05;6.80;65.70
17307;DHT22;8771;48.048;7.682;2023-02-28T12:05:24;6.70;65.80
17307;DHT22;8771;48.048;7.682;2023-02-28T12:10:30;6.40;66.10
17307;DHT22;8771;48.048;7.682;2023-02-28T12:16:05;6.30;66.40
17307;DHT22;8771;48.048;7.682;2023-02-28T12:21:17;6.10;66.60
17307;DHT22;8771;48.048;7.682;2023-02-28T12:32:39;5.70;66.80
17307;DHT22;8771;48.048;7.682;2023-02-28T12:37:46;5.70;66.80
17307;DHT22;8771;48.048;7.682;2023-02-28T12:42:52;5.80;66.70
17307;DHT22;8771;48.048;7.682;2023-02-28T12:48:40;5.80;66.40
17307;DHT22;8771;48.048;7.682;2023-02-28T12:54:03;5.80;66.50
17307;DHT22;8771;48.048;7.682;2023-02-28T12:59:14;5.80;66.50
17307;DHT22;8771;48.048;7.682;2023-02-28T13:09:56;5.80;66.50
17307;DHT22;8771;48.048;7.682;2023-02-28T13:15:06;5.80;66.40
17307;DHT22;8771;48.048;7.682;2023-02-28T13:20:19;5.80;66.50
17307;DHT22;8771;48.048;7.682;2023-02-28T13:25:49;5.60;66.50
17307;DHT22;8771;48.048;7.682;2023-02-28T13:31:05;5.60;66.60
17307;DHT22;8771;48.048;7.682;2023-02-28T13:36:23;5.60;66.50
17307;DHT22;8771;48.048;7.682;2023-02-28T13:41:43;5.50;66.50
17307;DHT22;8771;48.048;7.682;2023-02-28T13:47:24;5.50;66.50
17307;DHT22;8771;48.048;7.682;2023-02-28T13:52:31;5.50;66.50
17307;DHT22;8771;48.048;7.682;2023-02-28T13:57:45;5.50;66.50
17307;DHT22;8771;48.048;7.682;2023-02-28T14:03:08;5.50;66.40
17307;DHT22;8771;48.048;7.682;2023-02-28T14:08:16;5.50;66.50
17307;DHT22;8771;48.048;7.682;2023-02-28T14:13:40;5.50;66.50
17307;DHT22;8771;48.048;7.682;2023-02-28T14:18:50;5.50;66.40
17307;DHT22;8771;48.048;7.682;2023-02-28T14:24:23;5.40;66.40
17307;DHT22;8771;48.048;7.682;2023-02-28T14:29:59;5.50;66.50
17307;DHT22;8771;48.048;7.682;2023-02-28T14:35:16;5.50;66.40
17307;DHT22;8771;48.048;7.682;2023-02-28T14:40:27;5.50;66.40
17307;DHT22;8771;48.048;7.682;2023-02-28T14:45:32;5.50;66.40
17307;DHT22;8771;48.048;7.682;2023-02-28T14:50:36;5.40;66.40
17307;DHT22;8771;48.048;7.682;2023-02-28T14:55:44;5.40;66.40
17307;DHT22;8771;48.048;7.682;2023-02-28T15:00:49;5.30;66.40
17307;DHT22;8771;48.048;7.682;2023-02-28T15:05:52;5.30;66.50
17307;DHT22;8771;48.048;7.682;2023-02-28T15:10:59;5.30;66.50
17307;DHT22;8771;48.048;7.682;2023-02-28T15:16:03;5.30;66.50
17307;DHT22;8771;48.048;7.682;2023-02-28T15:21:10;5.30;66.50
17307;DHT22;8771;48.048;7.682;2023-02-28T15:26:16;5.30;66.50
17307;DHT22;8771;48.048;7.682;2023-02-28T15:31:26;5.30;66.50
17307;DHT22;8771;48.048;7.682;2023-02-28T15:36:30;5.30;66.40
17307;DHT22;8771;48.048;7.682;2023-02-28T15:41:37;5.40;66.50
17307;DHT22;8771;48.048;7.682;2023-02-28T15:46:44;5.40;66.50
17307;DHT22;8771;48.048;7.682;2023-02-28T15:51:48;5.30;66.50
17307;DHT22;8771;48.048;7.682;2023-02-28T15:56:53;5.30;66.50
17307;DHT22;8771;48.048;7.682;2023-02-28T16:02:18;5.30;66.50
17307;DHT22;8771;48.048;7.682;2023-02-28T16:07:21;5.20;66.50
17307;DHT22;8771;48.048;7.682;2023-02-28T16:12:28;5.20;66.70
17307;DHT22;8771;48.048;7.682;2023-02-28T16:17:33;5.10;66.80
17307;DHT22;8771;48.048;7.682;2023-02-28T16:22:36;5.10;66.90
17307;DHT22;8771;48.048;7.682;2023-02-28T16:27:40;5.00;66.90
17307;DHT22;8771;48.048;7.682;2023-02-28T16:32:43;4.90;67.00
17307;DHT22;8771;48.048;7.682;2023-02-28T16:37:45;4.90;67.10
17307;DHT22;8771;48.048;7.682;2023-02-28T16:42:50;4.90;67.20
17307;DHT22;8771;48.048;7.682;2023-02-28T16:47:53;4.90;67.30
17307;DHT22;8771;48.048;7.682;2023-02-28T16:52:55;5.00;67.40
17307;DHT22;8771;48.048;7.682;2023-02-28T16:58:01;5.00;67.40
17307;DHT22;8771;48.048;7.682;2023-02-28T17:03:03;5.00;67.40
17307;DHT22;8771;48.048;7.682;2023-02-28T17:08:14;5.00;67.40
17307;DHT22;8771;48.048;7.682;2023-02-28T17:13:18;5.00;67.50
17307;DHT22;8771;48.048;7.682;2023-02-28T17:18:20;5.00;67.50
17307;DHT22;8771;48.048;7.682;2023-02-28T17:23:23;5.00;67.60
17307;DHT22;8771;48.048;7.682;2023-02-28T17:28:26;4.90;67.70
17307;DHT22;8771;48.048;7.682;2023-02-28T17:33:28;4.80;67.70
17307;DHT22;8771;48.048;7.682;2023-02-28T17:38:30;4.70;67.80
17307;DHT22;8771;48.048;7.682;2023-02-28T17:43:34;4.50;67.80
17307;DHT22;8771;48.048;7.682;2023-02-28T17:48:36;4.40;67.80
17307;DHT22;8771;48.048;7.682;2023-02-28T17:53:38;4.30;67.80
17307;DHT22;8771;48.048;7.682;2023-02-28T17:58:42;4.30;67.80
17307;DHT22;8771;48.048;7.682;2023-02-28T18:03:44;4.20;67.80
17307;DHT22;8771;48.048;7.682;2023-02-28T18:08:46;4.20;68.00
17307;DHT22;8771;48.048;7.682;2023-02-28T18:13:52;4.20;68.00
17307;DHT22;8771;48.048;7.682;2023-02-28T18:18:55;4.20;68.00
17307;DHT22;8771;48.048;7.682;2023-02-28T18:24:00;4.10;67.90
17307;DHT22;8771;48.048;7.682;2023-02-28T18:29:04;4.10;68.00
17307;DHT22;8771;48.048;7.682;2023-02-28T18:34:06;4.10;68.00
17307;DHT22;8771;48.048;7.682;2023-02-28T18:39:08;3.90;68.10
17307;DHT22;8771;48.048;7.682;2023-02-28T18:44:13;3.90;68.20
17307;DHT22;8771;48.048;7.682;2023-02-28T18:49:15;3.80;68.20
17307;DHT22;8771;48.048;7.682;2023-02-28T18:54:17;3.70;68.20
17307;DHT22;8771;48.048;7.682;2023-02-28T18:59:21;3.60;68.30
17307;DHT22;8771;48.048;7.682;2023-02-28T19:04:23;3.50;68.30
17307;DHT22;8771;48.048;7.682;2023-02-28T19:09:25;3.40;68.50
17307;DHT22;8771;48.048;7.682;2023-02-28T19:14:29;3.30;68.60
17307;DHT22;8771;48.048;7.682;2023-02-28T19:19:31;3.10;68.50
17307;DHT22;8771;48.048;7.682;2023-02-28T19:24:33;3.00;68.60
17307;DHT22;8771;48.048;7.682;2023-02-28T19:29:36;2.90;68.60
17307;DHT22;8771;48.048;7.682;2023-02-28T19:34:38;2.90;68.70
17307;DHT22;8771;48.048;7.682;2023-02-28T19:39:42;2.90;68.70
17307;DHT22;8771;48.048;7.682;2023-02-28T19:44:46;2.80;68.70
17307;DHT22;8771;48.048;7.682;2023-02-28T19:49:49;2.70;69.50
17307;DHT22;8771;48.048;7.682;2023-02-28T19:54:54;2.70;68.80
17307;DHT22;8771;48.048;7.682;2023-02-28T19:59:57;2.70;68.70
17307;DHT22;8771;48.048;7.682;2023-02-28T20:04:59;2.70;68.70
17307;DHT22;8771;48.048;7.682;2023-02-28T20:10:02;2.70;68.70
17307;DHT22;8771;48.048;7.682;2023-02-28T20:15:07;2.60;68.60
17307;DHT22;8771;48.048;7.682;2023-02-28T20:20:10;2.60;68.70
17307;DHT22;8771;48.048;7.682;2023-02-28T20:25:12;2.60;68.70
17307;DHT22;8771;48.048;7.682;2023-02-28T20:30:16;2.60;68.60
17307;DHT22;8771;48.048;7.682;2023-02-28T20:35:21;2.60;68.60
17307;DHT22;8771;48.048;7.682;2023-02-28T20:40:23;2.60;68.60
17307;DHT22;8771;48.048;7.682;2023-02-28T20:45:27;2.60;68.60
17307;DHT22;8771;48.048;7.682;2023-02-28T20:50:29;2.50;68.60
17307;DHT22;8771;48.048;7.682;2023-02-28T20:55:31;2.50;68.70
17307;DHT22;8771;48.048;7.682;2023-02-28T21:00:34;2.40;68.60
17307;DHT22;8771;48.048;7.682;2023-02-28T21:05:37;2.40;68.70
17307;DHT22;8771;48.048;7.682;2023-02-28T21:10:39;2.30;68.70
17307;DHT22;8771;48.048;7.682;2023-02-28T21:15:43;2.30;68.80
17307;DHT22;8771;48.048;7.682;2023-02-28T21:20:45;2.20;68.80
17307;DHT22;8771;48.048;7.682;2023-02-28T21:25:49;2.10;68.80
17307;DHT22;8771;48.048;7.682;2023-02-28T21:30:59;2.10;68.90
17307;DHT22;8771;48.048;7.682;2023-02-28T21:36:03;2.00;69.00
17307;DHT22;8771;48.048;7.682;2023-02-28T21:41:05;1.90;69.00
17307;DHT22;8771;48.048;7.682;2023-02-28T21:46:10;1.90;69.00
17307;DHT22;8771;48.048;7.682;2023-02-28T21:51:14;1.80;69.00
17307;DHT22;8771;48.048;7.682;2023-02-28T21:56:18;1.80;69.00
17307;DHT22;8771;48.048;7.682;2023-02-28T22:01:21;1.70;69.00
17307;DHT22;8771;48.048;7.682;2023-02-28T22:06:25;1.60;69.10
17307;DHT22;8771;48.048;7.682;2023-02-28T22:11:28;1.50;69.20
17307;DHT22;8771;48.048;7.682;2023-02-28T22:16:31;1.40;69.10
17307;DHT22;8771;48.048;7.682;2023-02-28T22:21:34;1.30;69.30
17307;DHT22;8771;48.048;7.682;2023-02-28T22:26:37;1.10;87.50
17307;DHT22;8771;48.048;7.682;2023-02-28T22:31:40;1.20;69.20
17307;DHT22;8771;48.048;7.682;2023-02-28T22:36:42;1.20;69.20
17307;DHT22;8771;48.048;7.682;2023-02-28T22:41:44;1.30;69.10
17307;DHT22;8771;48.048;7.682;2023-02-28T22:46:51;1.50;68.90
17307;DHT22;8771;48.048;7.682;2023-02-28T22:51:53;1.70;68.50
17307;DHT22;8771;48.048;7.682;2023-02-28T22:56:55;2.00;68.10
17307;DHT22;8771;48.048;7.682;2023-02-28T23:01:59;2.20;68.00
17307;DHT22;8771;48.048;7.682;2023-02-28T23:07:01;2.40;67.90
17307;DHT22;8771;48.048;7.682;2023-02-28T23:12:03;2.50;67.80
17307;DHT22;8771;48.048;7.682;2023-02-28T23:17:06;2.50;67.80
17307;DHT22;8771;48.048;7.682;2023-02-28T23:22:08;2.60;68.00
17307;DHT22;8771;48.048;7.682;2023-02-28T23:27:10;2.60;68.00
17307;DHT22;8771;48.048;7.682;2023-02-28T23:32:14;2.50;68.10
17307;DHT22;8771;48.048;7.682;2023-02-28T23:37:16;2.60;68.20
17307;DHT22;8771;48.048;7.682;2023-02-28T23:42:19;2.60;68.10
17307;DHT22;8771;48.048;7.682;2023-02-28T23:47:22;2.60;68.10
17307;DHT22;8771;48.048;7.682;2023-02-28T23:52:24;2.60;68.30
17307;DHT22;8771;48.048;7.682;2023-02-28T23:57:26;2.60;68.30
